Long Pond, Pennsylvania
Current Conditions -  °F | °C
As of 4:53 AM on Friday 24 Oct 2014 (Local Time) from KMPO Reporting Station
Overcast Overcast  
Wind Chill: 38°   Ceiling: 800
Heat Index: 46°   Visibility: 10mi
Dew Point: 42°   Wind: 24mph
Humidity: 86%   Direction: 310°NW
Pressure: 29.8"   Gusts: 36mph
Location:  41.09°N, 75.44°W
Report Text: KMPO 240853Z AUTO 31021G31KT 10SM OVC008 08/06 A2980 RMK AO2 PK WND 31031/0853 SLP099 6//// T00780056 50004 TSNO PNO $
Loading
Personal Weather Stations






























Interactive Weather Map
Tropical Storm Tracking
New forecast layout! Learn more

10-Day Weather Forecast

Advertisements
Track Severe Weather on mobile